Time;durP1;ratioP1;P1;durP2;ratioP2;P2;SDS_P1;SDS_P2;PMS_P1;PMS_P2;Temp;Humidity;BMP_temperature;BMP_pressure;BME280_temperature;BME280_humidity;BME280_pressure;Samples;Min_cycle;Max_cycle;Signal;HPM_P1;HPM_P2
2023/09/07 00:01:38;;;;;;;24.50;18.10;;;;;;;28.45;nan;97979.56;4927312;29;20047;-64
2023/09/07 00:04:27;;;;;;;22.40;17.60;;;;;;;28.46;nan;97984.69;4927235;29;20055;-64
2023/09/07 00:07:17;;;;;;;26.23;18.30;;;;;;;28.46;nan;97987.41;4911573;29;20056;-65
2023/09/07 00:10:07;;;;;;;26.50;17.60;;;;;;;28.45;nan;97985.03;4927878;29;20054;-64
2023/09/07 00:12:57;;;;;;;30.40;18.67;;;;;;;28.47;nan;97982.75;4926946;29;20515;-64
2023/09/07 00:15:47;;;;;;;25.92;17.85;;;;;;;28.45;nan;97985.81;4927562;29;20052;-65
2023/09/07 00:18:37;;;;;;;33.72;18.38;;;;;;;28.45;nan;97991.28;4927075;29;20490;-64
2023/09/07 00:21:27;;;;;;;25.25;18.25;;;;;;;28.44;nan;97994.31;4917788;29;20058;-64
2023/09/07 00:24:17;;;;;;;28.95;20.55;;;;;;;28.44;nan;97994.31;4927429;29;20048;-64
2023/09/07 00:27:07;;;;;;;35.92;20.58;;;;;;;28.42;nan;97997.34;4928080;29;20078;-64
2023/09/07 00:29:57;;;;;;;33.42;21.70;;;;;;;28.43;nan;98009.84;4930780;29;20058;-64
2023/09/07 00:32:47;;;;;;;43.63;22.92;;;;;;;28.37;nan;98010.38;4929748;29;20047;-66
2023/09/07 00:35:37;;;;;;;31.00;22.60;;;;;;;28.36;nan;98014.22;4931629;29;20698;-64
2023/09/07 00:38:27;;;;;;;33.53;22.85;;;;;;;28.40;nan;98017.88;4911817;29;20052;-64
2023/09/07 00:41:17;;;;;;;36.72;24.80;;;;;;;28.39;nan;98010.84;4916777;29;20052;-64
2023/09/07 00:44:07;;;;;;;39.17;24.88;;;;;;;28.39;nan;98014.34;4929504;29;20067;-64
2023/09/07 00:46:57;;;;;;;36.53;24.73;;;;;;;28.42;nan;98013.69;4917066;29;20139;-64
2023/09/07 00:49:47;;;;;;;37.00;25.60;;;;;;;28.43;nan;98017.22;4927245;29;20048;-64
2023/09/07 00:52:39;;;;;;;36.10;25.48;;;;;;;28.41;nan;98011.31;4927666;29;20056;-64
2023/09/07 00:55:32;;;;;;;37.28;26.75;;;;;;;28.42;nan;98019.16;4917988;29;20131;-64
2023/09/07 00:58:22;;;;;;;32.20;24.77;;;;;;;28.48;nan;98025.22;4931057;29;20047;-64
2023/09/07 01:01:12;;;;;;;35.50;24.00;;;;;;;28.53;nan;98017.69;4912071;29;20056;-64
2023/09/07 01:04:03;;;;;;;32.88;23.40;;;;;;;28.55;nan;98030.97;4929203;29;20468;-65
2023/09/07 01:07:00;;;;;;;43.13;25.13;;;;;;;28.54;nan;98032.91;4913945;29;20488;-64
2023/09/07 01:09:58;;;;;;;34.03;25.40;;;;;;;28.57;nan;98028.72;4911778;29;20565;-64
2023/09/07 01:12:48;;;;;;;41.70;24.77;;;;;;;28.64;nan;98036.38;4930085;29;20046;-65
2023/09/07 01:15:38;;;;;;;41.90;23.63;;;;;;;28.67;nan;98044.72;4931415;28;20138;-64
2023/09/07 01:18:28;;;;;;;30.92;22.63;;;;;;;28.69;nan;98041.66;4917804;29;20058;-64
2023/09/07 01:21:19;;;;;;;29.05;21.17;;;;;;;28.71;nan;98042.16;4929934;29;20054;-64
2023/09/07 01:24:10;;;;;;;29.42;20.55;;;;;;;28.77;nan;98043.56;4916359;29;20044;-64
2023/09/07 01:27:05;;;;;;;36.03;22.90;;;;;;;28.81;nan;98044.53;4929685;29;20044;-64
2023/09/07 01:29:55;;;;;;;32.65;21.20;;;;;;;28.85;nan;98045.50;4911745;29;20047;-65
2023/09/07 01:32:45;;;;;;;33.70;21.33;;;;;;;28.87;nan;98054.94;4913176;29;20102;-65
2023/09/07 01:35:36;;;;;;;35.88;20.02;;;;;;;28.92;nan;98057.47;4930430;28;20055;-64
2023/09/07 01:38:27;;;;;;;41.25;22.50;;;;;;;28.96;nan;98066.59;4916356;29;20048;-64
2023/09/07 01:41:17;;;;;;;47.05;21.33;;;;;;;29.05;nan;98046.66;4916759;29;20388;-64
2023/09/07 01:44:07;;;;;;;41.78;21.10;;;;;;;29.13;nan;98060.25;4915166;29;20071;-65
2023/09/07 01:46:57;;;;;;;40.03;22.15;;;;;;;29.18;nan;98060.06;4932452;29;20069;-65
2023/09/07 01:49:50;;;;;;;41.28;22.48;;;;;;;29.23;nan;98056.34;4910623;29;20056;-65
2023/09/07 01:52:39;;;;;;;33.78;20.45;;;;;;;29.37;nan;98063.19;4928971;29;20051;-64
2023/09/07 01:55:29;;;;;;;40.75;22.58;;;;;;;29.48;nan;98065.53;4915725;29;20110;-65
2023/09/07 01:58:20;;;;;;;43.28;22.50;;;;;;;29.60;nan;98068.34;4916793;28;20097;-64
2023/09/07 02:01:24;;;;;;;39.95;22.25;;;;;;;29.68;nan;98072.94;4915693;29;20186;-64
2023/09/07 02:04:14;;;;;;;33.25;22.35;;;;;;;29.82;nan;98084.41;4927804;29;20837;-64
2023/09/07 02:07:04;;;;;;;32.22;21.23;;;;;;;29.90;nan;98080.84;4927979;29;20051;-65
2023/09/07 02:09:54;;;;;;;33.08;20.98;;;;;;;30.17;nan;98088.47;4923250;28;20048;-64
2023/09/07 02:12:46;;;;;;;41.30;23.83;;;;;;;30.47;nan;98091.09;4929730;28;20660;-64
2023/09/07 02:15:39;;;;;;;43.28;20.40;;;;;;;30.61;nan;98095.13;4926427;29;20054;-64
2023/09/07 02:18:29;;;;;;;27.05;17.50;;;;;;;30.62;nan;98099.47;4914797;29;20134;-64
2023/09/07 02:21:19;;;;;;;36.60;18.05;;;;;;;30.69;nan;98107.91;4913763;29;20048;-65
2023/09/07 02:24:09;;;;;;;29.83;16.75;;;;;;;30.85;nan;98105.31;4927231;29;20051;-65
2023/09/07 02:26:58;;;;;;;32.63;19.48;;;;;;;31.01;nan;98116.44;4914179;29;20048;-64
2023/09/07 02:29:48;;;;;;;34.40;20.75;;;;;;;31.11;nan;98119.50;4920178;29;20467;-65
2023/09/07 02:32:38;;;;;;;30.92;20.42;;;;;;;31.21;nan;98121.78;4914080;29;20078;-64
2023/09/07 02:35:29;;;;;;;37.25;21.55;;;;;;;31.20;nan;98120.19;4914962;29;20125;-64
2023/09/07 02:38:19;;;;;;;41.30;22.48;;;;;;;31.25;nan;98123.88;4927582;29;20107;-65
2023/09/07 02:41:09;;;;;;;32.35;19.25;;;;;;;31.26;nan;98123.50;4928227;29;20047;-64
2023/09/07 02:43:59;;;;;;;30.08;19.58;;;;;;;31.17;nan;98125.56;4914494;29;20036;-65
2023/09/07 02:46:49;;;;;;;28.42;17.15;;;;;;;31.24;nan;98128.53;4902374;29;20048;-65
2023/09/07 02:49:40;;;;;;;29.00;17.77;;;;;;;31.31;nan;98130.69;4918870;29;20086;-65
2023/09/07 02:52:30;;;;;;;32.30;20.10;;;;;;;31.25;nan;98132.84;4926097;29;21157;-64
2023/09/07 02:55:20;;;;;;;29.45;19.15;;;;;;;31.32;nan;98137.78;4914247;29;20096;-65
2023/09/07 02:58:10;;;;;;;32.28;18.85;;;;;;;31.42;nan;98142.81;4926026;29;20071;-65
2023/09/07 03:00:59;;;;;;;33.15;18.45;;;;;;;31.46;nan;98140.97;4908124;29;20048;-65
2023/09/07 03:03:52;;;;;;;29.35;18.65;;;;;;;31.58;nan;98146.47;4913436;29;20040;-65
2023/09/07 03:06:42;;;;;;;36.20;19.20;;;;;;;31.53;nan;98146.66;4926899;29;20186;-64
2023/09/07 03:09:31;;;;;;;33.90;21.15;;;;;;;31.48;nan;98146.88;4915114;29;20060;-64
2023/09/07 03:12:21;;;;;;;33.78;20.25;;;;;;;31.60;nan;98147.69;4928057;29;20462;-65
2023/09/07 03:15:13;;;;;;;35.15;20.42;;;;;;;31.52;nan;98156.81;4913498;29;20150;-65
2023/09/07 03:18:02;;;;;;;32.15;18.00;;;;;;;31.76;nan;98156.03;4910529;29;20055;-65
2023/09/07 03:20:55;;;;;;;33.25;18.77;;;;;;;31.73;nan;98156.72;4918995;29;20055;-63
2023/09/07 03:23:47;;;;;;;30.48;19.05;;;;;;;31.87;nan;98154.41;4911505;29;20670;-65
2023/09/07 03:26:37;;;;;;;27.52;18.90;;;;;;;31.89;nan;98151.31;4925926;29;20055;-64
2023/09/07 03:29:27;;;;;;;29.80;20.10;;;;;;;32.05;nan;98155.75;4926933;29;20052;-64
2023/09/07 03:32:16;;;;;;;34.58;19.30;;;;;;;32.12;nan;98157.13;4912326;29;20126;-64
2023/09/07 03:35:10;;;;;;;33.92;19.13;;;;;;;32.03;nan;98158.03;4927880;29;20048;-64
2023/09/07 03:38:00;;;;;;;28.42;17.77;;;;;;;32.19;nan;98157.31;4905530;29;20357;-64
2023/09/07 03:40:50;;;;;;;26.58;18.73;;;;;;;32.14;nan;98160.31;4915125;29;20187;-64
2023/09/07 03:43:40;;;;;;;27.30;18.67;;;;;;;32.18;nan;98155.72;4914479;29;20048;-64
2023/09/07 03:46:30;;;;;;;31.00;17.17;;;;;;;32.21;nan;98157.78;4905946;29;20098;-64
2023/09/07 03:49:20;;;;;;;29.00;16.02;;;;;;;32.27;nan;98157.19;4912518;29;20443;-64
2023/09/07 03:52:11;;;;;;;26.58;16.65;;;;;;;32.37;nan;98159.44;4913159;29;20044;-64
2023/09/07 03:55:01;;;;;;;27.95;17.48;;;;;;;32.39;nan;98164.59;4927820;29;20051;-64
2023/09/07 03:57:51;;;;;;;29.25;16.17;;;;;;;32.54;nan;98167.38;4928789;29;20043;-64
2023/09/07 04:00:44;;;;;;;18.13;14.10;;;;;;;32.64;nan;98155.13;4929281;29;20483;-64
2023/09/07 04:03:34;;;;;;;24.45;13.82;;;;;;;32.64;nan;98152.38;4917225;29;20134;-64
2023/09/07 04:06:24;;;;;;;26.50;16.20;;;;;;;32.81;nan;98164.97;4931885;29;20047;-65
2023/09/07 04:09:14;;;;;;;34.45;15.40;;;;;;;32.90;nan;98165.63;4917343;29;20102;-66
2023/09/07 04:12:04;;;;;;;22.75;15.60;;;;;;;32.76;nan;98155.06;4947096;28;20443;-66
2023/09/07 04:14:54;;;;;;;22.95;13.70;;;;;;;32.93;nan;98165.69;4917314;29;20154;-66
2023/09/07 04:17:44;;;;;;;28.85;14.55;;;;;;;32.94;nan;98167.31;4915895;29;20146;-66
2023/09/07 04:20:34;;;;;;;23.70;14.20;;;;;;;33.07;nan;98169.97;4927350;29;20384;-66
2023/09/07 04:23:23;;;;;;;28.52;14.20;;;;;;;32.99;nan;98155.28;4916505;29;20055;-66
2023/09/07 04:26:13;;;;;;;20.83;13.30;;;;;;;33.09;nan;98156.69;4928315;29;20816;-65
2023/09/07 04:29:03;;;;;;;26.13;12.23;;;;;;;33.05;nan;98147.59;4911157;29;20475;-65
2023/09/07 04:31:53;;;;;;;24.13;12.80;;;;;;;33.21;nan;98156.63;4910040;29;20789;-67
2023/09/07 04:34:43;;;;;;;23.60;12.38;;;;;;;33.27;nan;98155.22;4915426;29;20082;-66
2023/09/07 04:37:33;;;;;;;19.67;10.60;;;;;;;33.41;nan;98159.09;4911310;29;20191;-66
2023/09/07 04:40:24;;;;;;;22.02;10.93;;;;;;;33.57;nan;98147.31;4929193;29;20396;-63
2023/09/07 04:43:14;;;;;;;19.15;9.63;;;;;;;33.79;nan;98152.97;4914151;29;20626;-66
2023/09/07 04:46:04;;;;;;;24.70;11.63;;;;;;;34.12;nan;98147.00;4914793;29;20643;-67
2023/09/07 04:48:54;;;;;;;19.33;10.35;;;;;;;34.46;nan;98139.88;4928273;29;20043;-66
2023/09/07 04:51:44;;;;;;;17.95;9.52;;;;;;;34.73;nan;98140.81;4930514;29;20106;-65
2023/09/07 04:54:37;;;;;;;16.73;8.93;;;;;;;35.17;nan;98140.44;4915192;29;20044;-66
2023/09/07 04:57:27;;;;;;;17.95;7.57;;;;;;;35.45;nan;98149.94;4916378;29;20063;-65
2023/09/07 05:00:17;;;;;;;12.18;7.53;;;;;;;35.65;nan;98145.19;4930138;29;20043;-64
2023/09/07 05:03:06;;;;;;;16.75;8.90;;;;;;;35.78;nan;98143.00;4930723;29;20082;-65
2023/09/07 05:05:56;;;;;;;16.83;9.68;;;;;;;35.92;nan;98134.94;4915236;29;20515;-65
2023/09/07 05:08:46;;;;;;;19.48;10.68;;;;;;;35.95;nan;98145.19;4926845;29;20078;-65
2023/09/07 05:11:36;;;;;;;16.10;9.43;;;;;;;36.18;nan;98137.66;4910849;29;20051;-65
2023/09/07 05:14:26;;;;;;;21.15;8.80;;;;;;;35.86;nan;98136.41;4928409;29;20131;-65
2023/09/07 05:17:15;;;;;;;25.40;15.27;;;;;;;36.25;nan;98134.97;4924750;29;20048;-65
2023/09/07 05:20:06;;;;;;;24.15;12.82;;;;;;;37.19;nan;98133.66;4913244;29;20298;-66
2023/09/07 05:22:56;;;;;;;28.00;14.27;;;;;;;37.47;nan;98135.06;4910242;29;20051;-64
2023/09/07 05:25:54;;;;;;;36.38;16.05;;;;;;;37.65;nan;98138.78;4923452;29;20039;-66
2023/09/07 05:28:46;;;;;;;30.50;16.25;;;;;;;37.59;nan;98135.56;4916209;29;20051;-66
2023/09/07 05:31:36;;;;;;;26.30;17.48;;;;;;;37.09;nan;98130.81;4904057;29;20085;-66
2023/09/07 05:34:26;;;;;;;37.88;19.58;;;;;;;37.47;nan;98122.03;4911792;29;20040;-65
2023/09/07 05:37:19;;;;;;;39.45;20.67;;;;;;;37.63;nan;98121.78;4902308;29;20055;-65
2023/09/07 05:40:10;;;;;;;33.22;18.27;;;;;;;37.77;nan;98127.41;4914644;29;20070;-66
2023/09/07 05:42:59;;;;;;;39.45;19.40;;;;;;;37.81;nan;98117.16;4917329;28;20058;-65
2023/09/07 05:45:49;;;;;;;43.92;19.30;;;;;;;37.58;nan;98113.84;4916448;29;20095;-66
2023/09/07 05:48:40;;;;;;;37.95;21.95;;;;;;;37.29;nan;98116.38;4907741;29;20059;-66
2023/09/07 05:51:29;;;;;;;42.63;22.00;;;;;;;37.76;nan;98111.97;4926700;29;20203;-65
2023/09/07 05:54:19;;;;;;;38.55;19.92;;;;;;;37.55;nan;98109.88;4916282;29;20044;-68
2023/09/07 05:57:09;;;;;;;36.10;19.85;;;;;;;37.70;nan;98116.31;4904800;29;20046;-66
2023/09/07 05:59:59;;;;;;;35.35;20.65;;;;;;;37.83;nan;98117.56;4900422;29;20051;-66
2023/09/07 06:03:01;;;;;;;38.53;20.08;;;;;;;37.28;nan;98109.28;4922429;28;20059;-66
2023/09/07 06:05:51;;;;;;;41.72;21.15;;;;;;;37.66;nan;98112.72;4567698;29;9999802;-66
2023/09/07 06:08:42;;;;;;;39.53;19.17;;;;;;;37.37;nan;98108.13;4907621;29;20055;-66
2023/09/07 06:11:34;;;;;;;34.97;17.42;;;;;;;37.49;nan;98103.09;4922675;29;20052;-66
2023/09/07 06:14:26;;;;;;;25.77;16.67;;;;;;;37.09;nan;98089.41;4906923;29;20119;-67
2023/09/07 06:17:16;;;;;;;34.17;16.45;;;;;;;37.43;nan;98090.03;4897384;29;20054;-66
2023/09/07 06:20:07;;;;;;;39.10;15.93;;;;;;;36.54;nan;98091.97;4919337;29;20047;-65
2023/09/07 06:22:59;;;;;;;35.53;14.60;;;;;;;36.51;nan;98089.19;4902150;29;20957;-66
2023/09/07 06:25:49;;;;;;;30.45;14.52;;;;;;;37.22;nan;98080.41;4905655;29;20043;-66
2023/09/07 06:28:39;;;;;;;25.48;14.68;;;;;;;37.23;nan;98075.66;4920359;29;20048;-66
2023/09/07 06:31:31;;;;;;;26.52;15.50;;;;;;;36.94;nan;98071.88;4901655;29;20044;-66
2023/09/07 06:34:21;;;;;;;29.77;15.13;;;;;;;36.92;nan;98061.22;4901802;29;20732;-67
2023/09/07 06:37:12;;;;;;;24.63;14.43;;;;;;;36.93;nan;98056.47;4916923;29;20051;-67
2023/09/07 06:40:03;;;;;;;27.05;15.05;;;;;;;37.04;nan;98062.91;4908031;29;20051;-68
2023/09/07 06:42:53;;;;;;;31.08;14.70;;;;;;;36.68;nan;98052.72;4902235;29;20586;-66
2023/09/07 06:45:45;;;;;;;27.67;14.27;;;;;;;36.85;nan;98047.34;4907851;29;20550;-67
2023/09/07 06:48:36;;;;;;;29.25;13.95;;;;;;;37.03;nan;98044.72;4891894;29;20051;-67
2023/09/07 06:51:26;;;;;;;32.58;13.57;;;;;;;37.29;nan;98039.03;4906865;29;20047;-67
2023/09/07 06:54:18;;;;;;;30.15;13.63;;;;;;;37.26;nan;98039.81;4905681;29;20043;-67
2023/09/07 06:57:11;;;;;;;34.10;14.80;;;;;;;37.21;nan;98042.13;4903918;29;20051;-67
2023/09/07 07:00:01;;;;;;;34.80;13.83;;;;;;;37.18;nan;98038.16;4918989;29;20082;-65
2023/09/07 07:02:51;;;;;;;30.90;12.07;;;;;;;37.50;nan;98038.34;4900956;29;20051;-64
2023/09/07 07:05:42;;;;;;;25.13;13.05;;;;;;;37.35;nan;98031.19;4919675;29;20052;-66
2023/09/07 07:08:32;;;;;;;30.80;14.73;;;;;;;37.05;nan;98022.25;4902709;29;20293;-66
2023/09/07 07:11:22;;;;;;;26.95;14.18;;;;;;;36.92;nan;98013.47;4919633;29;20062;-67
2023/09/07 07:14:11;;;;;;;27.02;12.75;;;;;;;36.98;nan;98008.41;4918659;29;20075;-63
2023/09/07 07:17:04;;;;;;;30.80;13.82;;;;;;;36.84;nan;98003.56;4916827;29;20055;-64
2023/09/07 07:19:56;;;;;;;26.67;13.23;;;;;;;36.92;nan;97996.91;4905063;29;20137;-64
2023/09/07 07:22:46;;;;;;;21.25;13.60;;;;;;;36.78;nan;97996.81;4917362;29;20148;-67
2023/09/07 07:25:37;;;;;;;28.73;14.25;;;;;;;36.74;nan;97990.44;4902465;28;20492;-67
2023/09/07 07:28:27;;;;;;;28.52;13.30;;;;;;;36.51;nan;97976.84;4894359;29;20052;-65
2023/09/07 07:31:17;;;;;;;29.67;13.07;;;;;;;36.74;nan;97973.88;4912370;29;20752;-66
2023/09/07 07:34:08;;;;;;;25.77;12.23;;;;;;;36.84;nan;97973.97;4901621;29;20447;-65
2023/09/07 07:37:00;;;;;;;21.98;10.57;;;;;;;36.74;nan;97971.94;4907989;29;20043;-67
2023/09/07 07:39:50;;;;;;;25.02;8.75;;;;;;;36.67;nan;97974.66;4902349;29;20463;-66
2023/09/07 07:42:40;;;;;;;20.05;7.70;;;;;;;36.75;nan;97979.03;4906193;29;20713;-66
2023/09/07 07:45:31;;;;;;;15.50;7.93;;;;;;;36.70;nan;97968.34;4908491;29;20095;-67
2023/09/07 07:48:23;;;;;;;21.93;8.30;;;;;;;36.73;nan;97969.56;4909884;29;20043;-65
2023/09/07 07:51:15;;;;;;;20.05;7.03;;;;;;;36.65;nan;97965.16;4909655;29;20047;-66
2023/09/07 07:54:08;;;;;;;22.73;7.97;;;;;;;36.57;nan;97956.00;4911574;29;21101;-65
2023/09/07 07:56:59;;;;;;;22.27;6.75;;;;;;;36.70;nan;97960.06;4907619;29;20062;-65
2023/09/07 07:59:49;;;;;;;16.00;6.10;;;;;;;36.57;nan;97956.00;4900725;29;20051;-65
2023/09/07 08:02:40;;;;;;;18.67;7.03;;;;;;;36.53;nan;97951.63;4903434;29;20055;-65
2023/09/07 08:05:32;;;;;;;17.35;5.55;;;;;;;36.50;nan;97946.88;4921642;29;20048;-65
2023/09/07 08:08:25;;;;;;;20.45;6.43;;;;;;;36.54;nan;97936.66;4906585;29;20086;-65
2023/09/07 08:11:16;;;;;;;15.68;5.60;;;;;;;36.50;nan;97941.34;4901978;29;20052;-65
2023/09/07 08:14:07;;;;;;;15.35;6.25;;;;;;;36.26;nan;97932.47;4922150;29;20059;-65
2023/09/07 08:17:01;;;;;;;19.30;7.07;;;;;;;36.38;nan;97923.91;4922104;29;20106;-64
2023/09/07 08:19:56;;;;;;;17.33;7.82;;;;;;;36.55;nan;97916.16;4903864;29;20448;-65
2023/09/07 08:22:47;;;;;;;18.05;6.63;;;;;;;36.55;nan;97916.97;4910105;29;20192;-65
2023/09/07 08:25:39;;;;;;;20.33;7.20;;;;;;;36.39;nan;97917.22;4909224;28;20051;-64
2023/09/07 08:28:34;;;;;;;15.20;6.22;;;;;;;36.33;nan;97904.97;4905581;29;20063;-64
2023/09/07 08:31:27;;;;;;;14.52;5.70;;;;;;;36.46;nan;97902.72;4913012;29;20662;-65
2023/09/07 08:34:20;;;;;;;14.85;7.68;;;;;;;36.32;nan;97895.09;4920250;29;20111;-65
2023/09/07 08:37:20;;;;;;;14.90;6.97;;;;;;;36.44;nan;97894.00;4919995;29;20071;-67
2023/09/07 08:40:19;;;;;;;14.27;7.10;;;;;;;36.50;nan;97884.22;4908796;29;20137;-65
2023/09/07 08:43:12;;;;;;;21.50;7.20;;;;;;;36.44;nan;97877.44;4925413;28;20543;-65
2023/09/07 08:46:22;;;;;;;17.33;7.30;;;;;;;36.39;nan;97875.84;4924303;29;20048;-66
2023/09/07 08:49:12;;;;;;;22.00;7.75;;;;;;;36.27;nan;97872.59;4914529;29;20183;-65
2023/09/07 08:52:09;;;;;;;17.20;7.10;;;;;;;36.25;nan;97861.16;4924240;29;20054;-65
2023/09/07 08:55:02;;;;;;;21.27;7.28;;;;;;;36.38;nan;97863.22;4923604;29;20773;-65
2023/09/07 08:57:52;;;;;;;12.20;6.70;;;;;;;36.40;nan;97860.88;4912863;29;20478;-65
2023/09/07 09:00:44;;;;;;;10.38;5.97;;;;;;;36.34;nan;97859.63;4916018;29;20071;-65
2023/09/07 09:03:37;;;;;;;16.52;6.18;;;;;;;36.34;nan;97861.59;4912293;29;20047;-65
2023/09/07 09:06:30;;;;;;;;;;;;;;;36.35;nan;97854.91;4907514;29;20048;-65
2023/09/07 09:09:24;;;;;;;10.50;5.90;;;;;;;36.32;nan;97850.19;4917619;29;19930;-64
2023/09/07 09:12:16;;;;;;;18.95;6.10;;;;;;;36.24;nan;97854.06;4902710;28;20070;-65
2023/09/07 09:15:10;;;;;;;17.08;6.13;;;;;;;36.20;nan;97839.44;4915470;29;21595;-65
2023/09/07 09:18:12;;;;;;;17.48;6.63;;;;;;;36.20;nan;97839.44;4915860;29;20117;-63
2023/09/07 09:21:02;;;;;;;20.48;5.30;;;;;;;36.18;nan;97836.28;4924184;28;20156;-64
2023/09/07 09:23:58;;;;;;;17.45;5.68;;;;;;;36.18;nan;97833.50;4906982;29;20059;-64
2023/09/07 09:26:50;;;;;;;17.92;7.05;;;;;;;36.15;nan;97831.53;4922254;29;20100;-63
2023/09/07 09:29:41;;;;;;;12.88;5.60;;;;;;;36.16;nan;97835.88;4918063;29;20047;-64
2023/09/07 09:32:35;;;;;;;13.82;5.30;;;;;;;36.13;nan;97833.88;4920142;29;20420;-63
2023/09/07 09:35:29;;;;;;;11.23;5.13;;;;;;;35.99;nan;97824.28;4883649;29;20052;-63
2023/09/07 09:38:21;;;;;;;11.07;5.30;;;;;;;36.00;nan;97822.31;4919799;29;20039;-64
2023/09/07 09:41:17;;;;;;;17.63;5.40;;;;;;;36.01;nan;97816.44;4905844;29;20055;-62
2023/09/07 09:44:11;;;;;;;13.77;5.97;;;;;;;35.99;nan;97821.50;4921296;28;20066;-63
2023/09/07 09:47:03;;;;;;;13.35;5.95;;;;;;;35.95;nan;97809.66;4920492;28;20044;-65
2023/09/07 09:50:06;;;;;;;12.07;4.95;;;;;;;35.92;nan;97818.72;4901229;29;20046;-64
2023/09/07 09:52:58;;;;;;;16.48;5.10;;;;;;;35.97;nan;97809.31;4920837;29;20047;-62
2023/09/07 09:55:54;;;;;;;12.32;5.35;;;;;;;35.92;nan;97804.94;4921919;29;20048;-63
2023/09/07 09:58:44;;;;;;;12.73;4.80;;;;;;;35.90;nan;97792.69;4908941;28;20736;-63
2023/09/07 10:01:45;;;;;;;13.57;5.00;;;;;;;35.82;nan;97793.78;4920574;29;20039;-63
2023/09/07 10:04:36;;;;;;;13.25;5.20;;;;;;;35.82;nan;97794.59;4920647;29;20044;-64
2023/09/07 10:07:50;;;;;;;15.93;6.32;;;;;;;35.79;nan;97787.09;4916867;29;20060;-64
2023/09/07 10:10:43;;;;;;;12.82;6.50;;;;;;;35.74;nan;97775.63;4919878;29;20051;-64
2023/09/07 10:13:36;;;;;;;17.52;5.50;;;;;;;35.58;nan;97768.34;4920040;29;20060;-65
2023/09/07 10:16:30;;;;;;;17.23;5.57;;;;;;;35.54;nan;97766.75;4919018;29;20055;-64
2023/09/07 10:19:22;;;;;;;12.05;5.03;;;;;;;35.52;nan;97769.09;4917384;29;20047;-64
2023/09/07 10:22:23;;;;;;;16.80;6.68;;;;;;;35.54;nan;97759.28;4920005;29;20051;-64
2023/09/07 10:25:23;;;;;;;13.07;5.40;;;;;;;35.60;nan;97759.72;4922840;28;20043;-64
2023/09/07 10:28:24;;;;;;;25.67;6.60;;;;;;;35.56;nan;97756.94;4923403;28;20142;-64
2023/09/07 10:31:18;;;;;;;18.52;6.88;;;;;;;35.51;nan;97754.53;4908425;29;20039;-63
2023/09/07 10:34:17;;;;;;;14.27;5.78;;;;;;;35.39;nan;97743.00;4917388;29;20099;-64
2023/09/07 10:37:29;;;;;;;12.75;5.43;;;;;;;35.21;nan;97745.56;4922511;29;20050;-64
2023/09/07 10:40:22;;;;;;;17.15;7.72;;;;;;;35.19;nan;97747.09;4918546;29;20140;-64
2023/09/07 10:43:15;;;;;;;15.63;6.50;;;;;;;35.13;nan;97746.66;4915449;29;20044;-64
2023/09/07 10:46:05;;;;;;;13.25;7.38;;;;;;;35.09;nan;97743.88;4919235;29;20447;-64
2023/09/07 10:48:56;;;;;;;16.40;8.15;;;;;;;35.08;nan;97741.47;4917729;29;20048;-65
2023/09/07 10:51:48;;;;;;;21.80;8.50;;;;;;;35.02;nan;97738.25;4917973;29;20055;-64
2023/09/07 10:55:04;;;;;;;16.15;7.57;;;;;;;34.95;nan;97732.69;4915180;29;20048;-63
2023/09/07 10:58:01;;;;;;;13.68;7.40;;;;;;;34.95;nan;97724.44;4917977;29;20059;-64
2023/09/07 11:00:57;;;;;;;24.38;7.00;;;;;;;34.93;nan;97725.97;4901923;29;20040;-63
2023/09/07 11:03:50;;;;;;;14.13;5.75;;;;;;;34.87;nan;97717.28;4919391;29;20043;-63
2023/09/07 11:06:41;;;;;;;21.13;8.23;;;;;;;34.86;nan;97723.13;4921086;29;20195;-63
2023/09/07 11:09:43;;;;;;;24.30;9.18;;;;;;;34.76;nan;97716.34;4922112;28;20054;-63
2023/09/07 11:12:40;;;;;;;17.07;9.83;;;;;;;34.80;nan;97721.88;4908493;29;20443;-63
2023/09/07 11:15:36;;;;;;;18.70;10.88;;;;;;;34.74;nan;97709.63;4922354;29;20043;-63
2023/09/07 11:18:32;;;;;;;20.65;10.23;;;;;;;34.69;nan;97708.81;4921436;29;20090;-63
2023/09/07 11:21:26;;;;;;;22.25;10.73;;;;;;;34.60;nan;97700.03;4918021;29;20555;-62
2023/09/07 11:24:21;;;;;;;18.25;10.07;;;;;;;34.57;nan;97702.69;4901013;29;20547;-62
2023/09/07 11:27:13;;;;;;;20.67;11.43;;;;;;;34.63;nan;97703.97;4919174;29;20496;-64
2023/09/07 11:30:10;;;;;;;22.83;10.20;;;;;;;34.61;nan;97698.81;4919650;28;20167;-63
2023/09/07 11:33:08;;;;;;;23.17;9.88;;;;;;;34.57;nan;97700.75;4916715;29;20551;-64
2023/09/07 11:36:02;;;;;;;25.67;11.32;;;;;;;34.50;nan;97686.91;4920964;28;20048;-62
2023/09/07 11:38:56;;;;;;;26.77;10.65;;;;;;;34.49;nan;97684.53;4919507;29;20924;-64
2023/09/07 11:41:46;;;;;;;22.75;10.50;;;;;;;34.55;nan;97685.78;4911702;29;20056;-62
2023/09/07 11:44:39;;;;;;;21.73;11.52;;;;;;;34.52;nan;97687.31;4916645;29;20044;-65
2023/09/07 11:47:32;;;;;;;18.10;9.48;;;;;;;34.48;nan;97689.25;4911864;29;20048;-63
2023/09/07 11:50:24;;;;;;;24.40;9.27;;;;;;;34.38;nan;97681.66;4917410;29;20259;-64
2023/09/07 11:53:17;;;;;;;21.80;9.63;;;;;;;34.32;nan;97679.59;4921884;28;20051;-64
2023/09/07 11:56:08;;;;;;;32.27;11.57;;;;;;;34.33;nan;97675.69;4920237;29;20060;-63
2023/09/07 11:58:58;;;;;;;22.15;9.50;;;;;;;34.27;nan;97672.47;4921142;29;20288;-65
2023/09/07 12:02:01;;;;;;;18.90;10.98;;;;;;;34.18;nan;97666.47;4909233;29;20110;-65
2023/09/07 12:04:56;;;;;;;22.13;11.13;;;;;;;34.07;nan;97660.00;4904759;29;20059;-65
2023/09/07 12:07:52;;;;;;;23.63;9.93;;;;;;;33.94;nan;97659.44;4901749;29;20175;-65
2023/09/07 12:10:50;;;;;;;15.85;9.45;;;;;;;33.91;nan;97656.63;4918924;29;20055;-64
2023/09/07 12:13:40;;;;;;;19.23;10.35;;;;;;;33.84;nan;97654.56;4906076;29;20052;-65
2023/09/07 12:16:31;;;;;;;19.77;10.85;;;;;;;33.84;nan;97652.63;4914272;29;20095;-64
2023/09/07 12:19:23;;;;;;;24.92;11.38;;;;;;;33.85;nan;97645.19;4900702;29;20746;-64
2023/09/07 12:22:18;;;;;;;27.02;11.25;;;;;;;33.80;nan;97651.00;4921415;29;20134;-64
2023/09/07 12:25:12;;;;;;;22.75;10.95;;;;;;;33.79;nan;97644.69;4913232;29;20039;-65
2023/09/07 12:28:08;;;;;;;25.98;10.75;;;;;;;33.84;nan;97643.59;4910638;29;20126;-63
2023/09/07 12:31:01;;;;;;;21.13;11.05;;;;;;;33.84;nan;97649.88;4914835;29;20696;-63
2023/09/07 12:33:55;;;;;;;26.33;12.23;;;;;;;33.84;nan;97646.34;4909775;29;20043;-65
2023/09/07 12:36:49;;;;;;;21.75;10.90;;;;;;;33.80;nan;97654.53;4925559;29;20424;-65
2023/09/07 12:39:39;;;;;;;23.25;12.05;;;;;;;33.74;nan;97650.50;4920177;29;20074;-64
2023/09/07 12:42:30;;;;;;;19.92;10.73;;;;;;;33.69;nan;97653.56;4904769;29;20118;-65
2023/09/07 12:45:25;;;;;;;22.73;11.05;;;;;;;33.71;nan;97654.00;4909882;29;20059;-67
2023/09/07 12:48:17;;;;;;;19.33;9.63;;;;;;;33.69;nan;97650.81;4912348;29;20090;-66
2023/09/07 12:51:08;;;;;;;19.80;10.38;;;;;;;33.65;nan;97649.16;4917563;29;20532;-64
2023/09/07 12:54:02;;;;;;;20.77;10.15;;;;;;;33.59;nan;97647.91;4231127;29;10000717;-67
2023/09/07 12:56:55;;;;;;;21.98;10.23;;;;;;;33.61;nan;97656.53;4890603;28;20088;-66
2023/09/07 12:59:51;;;;;;;20.58;9.15;;;;;;;33.63;nan;97651.50;4908369;29;20094;-66
2023/09/07 13:02:46;;;;;;;21.38;9.57;;;;;;;33.60;nan;97655.75;4907238;29;20183;-64
2023/09/07 13:05:36;;;;;;;24.35;10.23;;;;;;;33.63;nan;97649.53;4909362;29;20060;-64
2023/09/07 13:08:31;;;;;;;21.15;10.98;;;;;;;33.62;nan;97642.44;4899955;29;20052;-65
2023/09/07 13:11:24;;;;;;;25.67;10.27;;;;;;;33.61;nan;97657.34;4902286;29;20047;-65
2023/09/07 13:14:17;;;;;;;;;;;;;;;33.51;nan;97652.47;4918720;29;20059;-65
2023/09/07 13:17:14;;;;;;;24.10;10.95;;;;;;;33.41;nan;97650.38;4900822;29;19927;-64
2023/09/07 13:20:08;;;;;;;19.75;10.00;;;;;;;33.40;nan;97651.50;4897590;29;20793;-64
2023/09/07 13:23:01;;;;;;;22.50;9.68;;;;;;;33.41;nan;97650.38;4913554;28;20055;-64
2023/09/07 13:26:00;;;;;;;27.30;9.93;;;;;;;33.34;nan;97644.72;4901222;29;20171;-64
2023/09/07 13:28:53;;;;;;;29.17;9.57;;;;;;;33.31;nan;97643.53;4921096;29;20118;-64
2023/09/07 13:31:49;;;;;;;;;;;;;;;33.30;nan;97652.13;4918871;29;20491;-64
2023/09/07 13:34:43;;;;;;;20.35;9.68;;;;;;;33.25;nan;97647.72;4919749;29;19933;-66